sensor_id;sensor_type;location;lat;lon;timestamp;pressure;altitude;pressure_sealevel;temperature;humidity
42603;BME280;28233;55.748;48.752;2022-07-29T00:00:05;99279.13;;;18.55;76.21
42603;BME280;28233;55.748;48.752;2022-07-29T00:02:07;99277.13;;;18.52;75.56
42603;BME280;28233;55.748;48.752;2022-07-29T00:04:11;99288.66;;;18.51;76.24
42603;BME280;28233;55.748;48.752;2022-07-29T00:06:15;99283.44;;;18.49;77.55
42603;BME280;28233;55.748;48.752;2022-07-29T00:08:17;99283.03;;;18.47;77.95
42603;BME280;28233;55.748;48.752;2022-07-29T00:10:20;99282.59;;;18.45;75.78
42603;BME280;28233;55.748;48.752;2022-07-29T00:12:24;99277.81;;;18.42;75.84
42603;BME280;28233;55.748;48.752;2022-07-29T00:14:28;99280.19;;;18.44;77.27
42603;BME280;28233;55.748;48.752;2022-07-29T00:16:31;99280.59;;;18.42;76.91
42603;BME280;28233;55.748;48.752;2022-07-29T00:18:34;99280.16;;;18.40;77.61
42603;BME280;28233;55.748;48.752;2022-07-29T00:20:36;99286.09;;;18.38;77.26
42603;BME280;28233;55.748;48.752;2022-07-29T00:22:39;99281.69;;;18.34;77.21
42603;BME280;28233;55.748;48.752;2022-07-29T00:24:42;99285.66;;;18.33;77.70
42603;BME280;28233;55.748;48.752;2022-07-29T00:26:44;99287.63;;;18.32;78.36
42603;BME280;28233;55.748;48.752;2022-07-29T00:28:47;99280.84;;;18.30;79.08
42603;BME280;28233;55.748;48.752;2022-07-29T00:30:50;99289.19;;;18.30;79.31
42603;BME280;28233;55.748;48.752;2022-07-29T00:32:53;99286.00;;;18.28;78.36
42603;BME280;28233;55.748;48.752;2022-07-29T00:34:55;99282.34;;;18.24;78.48
42603;BME280;28233;55.748;48.752;2022-07-29T00:37:16;99285.09;;;18.20;77.04
42603;BME280;28233;55.748;48.752;2022-07-29T00:39:19;99278.31;;;18.17;76.45
42603;BME280;28233;55.748;48.752;2022-07-29T00:41:21;99279.88;;;18.15;76.24
42603;BME280;28233;55.748;48.752;2022-07-29T00:43:24;99286.25;;;18.15;76.34
42603;BME280;28233;55.748;48.752;2022-07-29T00:45:27;99285.00;;;18.13;76.52
42603;BME280;28233;55.748;48.752;2022-07-29T00:47:30;99284.59;;;18.11;77.27
42603;BME280;28233;55.748;48.752;2022-07-29T00:49:33;99278.22;;;18.10;76.82
42603;BME280;28233;55.748;48.752;2022-07-29T00:51:37;99286.97;;;18.09;76.79
42603;BME280;28233;55.748;48.752;2022-07-29T00:53:39;99280.19;;;18.06;76.87
42603;BME280;28233;55.748;48.752;2022-07-29T00:55:44;99282.53;;;18.04;77.02
42603;BME280;28233;55.748;48.752;2022-07-29T00:57:46;99275.78;;;18.05;76.77
42603;BME280;28233;55.748;48.752;2022-07-29T00:59:49;99277.34;;;18.03;76.71
42603;BME280;28233;55.748;48.752;2022-07-29T01:01:52;99275.75;;;18.02;77.17
42603;BME280;28233;55.748;48.752;2022-07-29T01:03:55;99280.47;;;18.01;77.17
42603;BME280;28233;55.748;48.752;2022-07-29T01:05:59;99281.69;;;18.00;76.83
42603;BME280;28233;55.748;48.752;2022-07-29T01:08:02;99272.91;;;17.98;76.97
42603;BME280;28233;55.748;48.752;2022-07-29T01:10:08;99278.47;;;17.98;76.62
42603;BME280;28233;55.748;48.752;2022-07-29T01:12:19;99280.44;;;17.98;76.43
42603;BME280;28233;55.748;48.752;2022-07-29T01:14:23;99282.44;;;17.97;76.53
42603;BME280;28233;55.748;48.752;2022-07-29T01:16:59;99282.88;;;17.99;76.41
42603;BME280;28233;55.748;48.752;2022-07-29T01:27:04;99285.84;;;17.87;76.80
42603;BME280;28233;55.748;48.752;2022-07-29T01:29:24;99284.69;;;17.88;76.68
42603;BME280;28233;55.748;48.752;2022-07-29T01:34:05;99294.28;;;17.94;76.82
42603;BME280;28233;55.748;48.752;2022-07-29T01:36:14;99280.03;;;17.95;76.92
42603;BME280;28233;55.748;48.752;2022-07-29T01:38:21;99287.59;;;17.99;76.15
42603;BME280;28233;55.748;48.752;2022-07-29T01:40:33;99290.00;;;18.00;76.96
42603;BME280;28233;55.748;48.752;2022-07-29T01:42:45;99298.78;;;18.02;76.40
42603;BME280;28233;55.748;48.752;2022-07-29T01:44:57;99294.00;;;18.03;77.09
42603;BME280;28233;55.748;48.752;2022-07-29T01:47:02;99295.56;;;18.00;76.09
42603;BME280;28233;55.748;48.752;2022-07-29T01:49:14;99300.34;;;18.00;76.68
42603;BME280;28233;55.748;48.752;2022-07-29T01:51:25;99296.44;;;18.04;76.47
42603;BME280;28233;55.748;48.752;2022-07-29T01:55:42;99290.56;;;18.13;76.33
42603;BME280;28233;55.748;48.752;2022-07-29T01:57:48;99295.41;;;18.20;76.33
42603;BME280;28233;55.748;48.752;2022-07-29T01:59:51;99287.13;;;18.23;75.87
42603;BME280;28233;55.748;48.752;2022-07-29T02:01:57;99296.72;;;18.29;76.75
42603;BME280;28233;55.748;48.752;2022-07-29T02:04:06;99282.81;;;18.29;75.43
42603;BME280;28233;55.748;48.752;2022-07-29T02:06:11;99306.75;;;18.37;74.87
42603;BME280;28233;55.748;48.752;2022-07-29T02:08:15;99296.84;;;18.40;74.82
42603;BME280;28233;55.748;48.752;2022-07-29T02:10:22;99298.13;;;18.46;74.87
42603;BME280;28233;55.748;48.752;2022-07-29T02:12:29;99292.97;;;18.48;74.74
42603;BME280;28233;55.748;48.752;2022-07-29T02:14:54;99293.81;;;18.52;74.98
42603;BME280;28233;55.748;48.752;2022-07-29T02:17:00;99299.44;;;18.59;74.70
42603;BME280;28233;55.748;48.752;2022-07-29T02:19:05;99302.28;;;18.63;74.95
42603;BME280;28233;55.748;48.752;2022-07-29T02:21:09;99293.97;;;18.67;74.38
42603;BME280;28233;55.748;48.752;2022-07-29T02:23:20;99292.81;;;18.71;74.33
42603;BME280;28233;55.748;48.752;2022-07-29T02:25:24;99295.22;;;18.73;74.52
42603;BME280;28233;55.748;48.752;2022-07-29T02:27:39;99291.66;;;18.76;74.02
42603;BME280;28233;55.748;48.752;2022-07-29T02:29:45;99290.94;;;18.79;73.84
42603;BME280;28233;55.748;48.752;2022-07-29T02:31:49;99289.41;;;18.85;74.80
42603;BME280;28233;55.748;48.752;2022-07-29T02:33:53;99291.81;;;18.87;74.89
42603;BME280;28233;55.748;48.752;2022-07-29T02:35:58;99294.63;;;18.90;74.81
42603;BME280;28233;55.748;48.752;2022-07-29T02:38:02;99293.88;;;18.93;74.37
42603;BME280;28233;55.748;48.752;2022-07-29T02:40:24;99293.50;;;18.98;74.81
42603;BME280;28233;55.748;48.752;2022-07-29T02:42:27;99290.38;;;19.04;75.09
42603;BME280;28233;55.748;48.752;2022-07-29T02:44:30;99287.22;;;19.09;75.86
42603;BME280;28233;55.748;48.752;2022-07-29T02:46:37;99279.72;;;19.13;75.63
42603;BME280;28233;55.748;48.752;2022-07-29T02:49:02;99290.50;;;19.18;74.47
42603;BME280;28233;55.748;48.752;2022-07-29T02:51:12;99279.78;;;19.20;74.58
42603;BME280;28233;55.748;48.752;2022-07-29T02:53:36;99292.13;;;19.22;75.47
42603;BME280;28233;55.748;48.752;2022-07-29T02:55:43;99286.59;;;19.30;74.86
42603;BME280;28233;55.748;48.752;2022-07-29T02:57:55;99281.81;;;19.30;74.74
42603;BME280;28233;55.748;48.752;2022-07-29T03:00:04;99286.25;;;19.35;75.74
42603;BME280;28233;55.748;48.752;2022-07-29T03:02:08;99296.63;;;19.41;75.63
42603;BME280;28233;55.748;48.752;2022-07-29T03:04:13;99291.47;;;19.43;75.43
42603;BME280;28233;55.748;48.752;2022-07-29T03:06:19;99278.75;;;19.42;74.77
42603;BME280;28233;55.748;48.752;2022-07-29T03:08:39;99294.34;;;19.54;75.42
42603;BME280;28233;55.748;48.752;2022-07-29T03:10:46;99297.94;;;19.58;75.42
42603;BME280;28233;55.748;48.752;2022-07-29T03:12:49;99295.19;;;19.62;75.00
42603;BME280;28233;55.748;48.752;2022-07-29T03:14:53;99300.78;;;19.65;75.20
42603;BME280;28233;55.748;48.752;2022-07-29T03:16:56;99299.66;;;19.70;74.61
42603;BME280;28233;55.748;48.752;2022-07-29T03:19:00;99302.06;;;19.75;74.71
42603;BME280;28233;55.748;48.752;2022-07-29T03:21:03;99304.09;;;19.82;74.48
42603;BME280;28233;55.748;48.752;2022-07-29T03:23:07;99314.88;;;19.87;75.19
42603;BME280;28233;55.748;48.752;2022-07-29T03:25:11;99304.16;;;19.93;75.27
42603;BME280;28233;55.748;48.752;2022-07-29T03:27:14;99300.22;;;19.97;75.09
42603;BME280;28233;55.748;48.752;2022-07-29T03:29:16;99304.19;;;20.03;75.26
42603;BME280;28233;55.748;48.752;2022-07-29T03:31:21;99295.88;;;20.11;75.18
42603;BME280;28233;55.748;48.752;2022-07-29T03:33:23;99299.09;;;20.16;74.84
42603;BME280;28233;55.748;48.752;2022-07-29T03:35:26;99301.91;;;20.23;74.38
42603;BME280;28233;55.748;48.752;2022-07-29T03:37:29;99299.53;;;20.25;75.47
42603;BME280;28233;55.748;48.752;2022-07-29T03:39:38;99297.19;;;20.35;75.08
42603;BME280;28233;55.748;48.752;2022-07-29T03:41:44;99296.78;;;20.40;74.76
42603;BME280;28233;55.748;48.752;2022-07-29T03:43:49;99299.59;;;20.43;74.96
42603;BME280;28233;55.748;48.752;2022-07-29T03:45:54;99294.03;;;20.47;74.88
42603;BME280;28233;55.748;48.752;2022-07-29T03:48:07;99290.06;;;20.55;74.66
42603;BME280;28233;55.748;48.752;2022-07-29T03:50:14;99296.88;;;20.61;74.91
42603;BME280;28233;55.748;48.752;2022-07-29T03:52:17;99289.31;;;20.65;74.79
42603;BME280;28233;55.748;48.752;2022-07-29T03:54:20;99300.50;;;20.73;73.34
42603;BME280;28233;55.748;48.752;2022-07-29T03:56:23;99289.75;;;20.75;72.41
42603;BME280;28233;55.748;48.752;2022-07-29T03:58:27;99291.34;;;20.83;72.78
42603;BME280;28233;55.748;48.752;2022-07-29T04:00:34;99289.75;;;20.89;73.16
42603;BME280;28233;55.748;48.752;2022-07-29T04:02:38;99282.56;;;20.95;72.84
42603;BME280;28233;55.748;48.752;2022-07-29T04:04:42;99287.78;;;21.00;73.24
42603;BME280;28233;55.748;48.752;2022-07-29T04:06:46;99289.00;;;21.10;72.61
42603;BME280;28233;55.748;48.752;2022-07-29T04:08:49;99292.56;;;21.18;72.01
42603;BME280;28233;55.748;48.752;2022-07-29T04:10:52;99287.78;;;21.25;71.11
42603;BME280;28233;55.748;48.752;2022-07-29T04:12:54;99285.78;;;21.33;71.07
42603;BME280;28233;55.748;48.752;2022-07-29T04:14:57;99287.34;;;21.38;70.71
42603;BME280;28233;55.748;48.752;2022-07-29T04:17:01;99284.63;;;21.45;70.87
42603;BME280;28233;55.748;48.752;2022-07-29T04:19:04;99282.59;;;21.52;69.86
42603;BME280;28233;55.748;48.752;2022-07-29T04:21:06;99288.19;;;21.60;68.51
42603;BME280;28233;55.748;48.752;2022-07-29T04:23:09;99281.38;;;21.64;67.33
42603;BME280;28233;55.748;48.752;2022-07-29T04:25:11;99282.97;;;21.69;68.29
42603;BME280;28233;55.748;48.752;2022-07-29T04:27:14;99284.94;;;21.72;69.11
42603;BME280;28233;55.748;48.752;2022-07-29T04:29:16;99290.13;;;21.81;69.27
42603;BME280;28233;55.748;48.752;2022-07-29T04:31:19;99284.53;;;21.84;68.68
42603;BME280;28233;55.748;48.752;2022-07-29T04:33:27;99280.91;;;21.91;67.52
42603;BME280;28233;55.748;48.752;2022-07-29T04:35:30;99292.06;;;21.98;66.61
42603;BME280;28233;55.748;48.752;2022-07-29T04:37:49;99292.88;;;22.02;67.48
42603;BME280;28233;55.748;48.752;2022-07-29T04:39:51;99290.84;;;22.06;67.74
42603;BME280;28233;55.748;48.752;2022-07-29T04:41:54;99289.25;;;22.09;67.24
42603;BME280;28233;55.748;48.752;2022-07-29T04:43:57;99294.81;;;22.16;67.02
42603;BME280;28233;55.748;48.752;2022-07-29T04:46:02;99298.41;;;22.24;67.35
42603;BME280;28233;55.748;48.752;2022-07-29T04:48:05;99295.19;;;22.29;66.74
42603;BME280;28233;55.748;48.752;2022-07-29T04:50:09;99295.19;;;22.32;65.64
42603;BME280;28233;55.748;48.752;2022-07-29T04:52:11;99290.38;;;22.36;66.01
42603;BME280;28233;55.748;48.752;2022-07-29T04:54:14;99293.53;;;22.42;66.03
42603;BME280;28233;55.748;48.752;2022-07-29T04:56:17;99299.09;;;22.46;64.95
42603;BME280;28233;55.748;48.752;2022-07-29T04:58:20;99299.09;;;22.49;65.56
42603;BME280;28233;55.748;48.752;2022-07-29T05:00:22;99305.88;;;22.52;66.70
42603;BME280;28233;55.748;48.752;2022-07-29T05:02:34;99301.03;;;22.59;66.22
42603;BME280;28233;55.748;48.752;2022-07-29T05:04:37;99303.78;;;22.67;67.67
42603;BME280;28233;55.748;48.752;2022-07-29T05:06:39;99299.34;;;22.73;67.52
42603;BME280;28233;55.748;48.752;2022-07-29T05:08:42;99298.13;;;22.77;65.33
42603;BME280;28233;55.748;48.752;2022-07-29T05:10:44;99291.69;;;22.80;62.71
42603;BME280;28233;55.748;48.752;2022-07-29T05:12:47;99302.84;;;22.88;63.07
42603;BME280;28233;55.748;48.752;2022-07-29T05:14:50;99298.88;;;22.89;63.07
42603;BME280;28233;55.748;48.752;2022-07-29T05:16:52;99301.22;;;22.94;62.64
42603;BME280;28233;55.748;48.752;2022-07-29T05:18:58;99304.41;;;22.99;61.04
42603;BME280;28233;55.748;48.752;2022-07-29T05:21:01;99297.56;;;23.04;60.99
42603;BME280;28233;55.748;48.752;2022-07-29T05:23:04;99298.72;;;23.10;60.54
42603;BME280;28233;55.748;48.752;2022-07-29T05:25:07;99299.50;;;23.14;61.11
42603;BME280;28233;55.748;48.752;2022-07-29T05:27:12;99294.25;;;23.16;60.26
42603;BME280;28233;55.748;48.752;2022-07-29T05:29:14;99297.03;;;23.20;58.89
42603;BME280;28233;55.748;48.752;2022-07-29T05:31:37;99295.41;;;23.23;58.52
42603;BME280;28233;55.748;48.752;2022-07-29T05:33:41;99287.78;;;23.27;59.67
42603;BME280;28233;55.748;48.752;2022-07-29T05:35:43;99288.91;;;23.33;61.39
42603;BME280;28233;55.748;48.752;2022-07-29T05:37:46;99284.88;;;23.37;58.90
42603;BME280;28233;55.748;48.752;2022-07-29T05:39:48;99282.06;;;23.41;58.87
42603;BME280;28233;55.748;48.752;2022-07-29T05:41:58;99284.03;;;23.44;60.61
42603;BME280;28233;55.748;48.752;2022-07-29T05:44:00;99279.19;;;23.48;58.82
42603;BME280;28233;55.748;48.752;2022-07-29T05:46:03;99279.56;;;23.50;59.18
42603;BME280;28233;55.748;48.752;2022-07-29T05:48:06;99273.47;;;23.59;59.13
42603;BME280;28233;55.748;48.752;2022-07-29T05:50:09;99278.66;;;23.60;57.95
42603;BME280;28233;55.748;48.752;2022-07-29T05:52:12;99274.19;;;23.67;57.63
42603;BME280;28233;55.748;48.752;2022-07-29T05:54:15;99268.53;;;23.74;57.43
42603;BME280;28233;55.748;48.752;2022-07-29T05:56:18;99272.50;;;23.76;56.35
42603;BME280;28233;55.748;48.752;2022-07-29T05:58:21;99266.91;;;23.76;56.29
42603;BME280;28233;55.748;48.752;2022-07-29T06:00:23;99276.09;;;23.77;56.72
42603;BME280;28233;55.748;48.752;2022-07-29T06:02:26;99268.47;;;23.81;56.26
42603;BME280;28233;55.748;48.752;2022-07-29T06:04:29;99267.59;;;23.88;57.86
42603;BME280;28233;55.748;48.752;2022-07-29T06:06:32;99268.28;;;23.95;58.53
42603;BME280;28233;55.748;48.752;2022-07-29T06:08:35;99273.44;;;24.00;54.92
42603;BME280;28233;55.748;48.752;2022-07-29T06:10:38;99277.00;;;24.04;54.92
42603;BME280;28233;55.748;48.752;2022-07-29T06:12:41;99277.78;;;24.05;53.97
42603;BME280;28233;55.748;48.752;2022-07-29T06:14:43;99275.78;;;24.05;55.46
42603;BME280;28233;55.748;48.752;2022-07-29T06:16:46;99274.56;;;24.07;56.02
42603;BME280;28233;55.748;48.752;2022-07-29T06:18:49;99277.28;;;24.14;56.49
42603;BME280;28233;55.748;48.752;2022-07-29T06:20:51;99270.44;;;24.18;56.25
42603;BME280;28233;55.748;48.752;2022-07-29T06:22:54;99265.91;;;24.24;56.44
42603;BME280;28233;55.748;48.752;2022-07-29T06:24:56;99264.31;;;24.27;54.92
42603;BME280;28233;55.748;48.752;2022-07-29T06:26:59;99276.69;;;24.30;53.95
42603;BME280;28233;55.748;48.752;2022-07-29T06:29:02;99273.06;;;24.29;54.42
42603;BME280;28233;55.748;48.752;2022-07-29T06:31:05;99275.06;;;24.32;54.18
42603;BME280;28233;55.748;48.752;2022-07-29T06:33:16;99263.84;;;24.32;54.02
42603;BME280;28233;55.748;48.752;2022-07-29T06:35:19;99275.44;;;24.34;53.94
42603;BME280;28233;55.748;48.752;2022-07-29T06:37:41;99272.66;;;24.31;54.43
42603;BME280;28233;55.748;48.752;2022-07-29T06:39:44;99278.28;;;24.31;53.82
42603;BME280;28233;55.748;48.752;2022-07-29T06:41:48;99271.41;;;24.35;55.59
42603;BME280;28233;55.748;48.752;2022-07-29T06:43:53;99271.00;;;24.37;54.16
42603;BME280;28233;55.748;48.752;2022-07-29T06:45:59;99268.13;;;24.40;53.80
42603;BME280;28233;55.748;48.752;2022-07-29T06:48:04;99281.38;;;24.40;54.33
42603;BME280;28233;55.748;48.752;2022-07-29T06:50:06;99272.53;;;24.41;53.63
42603;BME280;28233;55.748;48.752;2022-07-29T06:52:10;99281.69;;;24.45;55.09
42603;BME280;28233;55.748;48.752;2022-07-29T06:54:13;99274.41;;;24.52;54.48
42603;BME280;28233;55.748;48.752;2022-07-29T06:56:16;99277.59;;;24.54;53.57
42603;BME280;28233;55.748;48.752;2022-07-29T06:58:18;99285.19;;;24.57;53.77
42603;BME280;28233;55.748;48.752;2022-07-29T07:00:22;99283.50;;;24.63;55.27
42603;BME280;28233;55.748;48.752;2022-07-29T07:02:25;99280.25;;;24.64;54.33
42603;BME280;28233;55.748;48.752;2022-07-29T07:04:29;99281.84;;;24.65;55.15
42603;BME280;28233;55.748;48.752;2022-07-29T07:06:31;99278.53;;;24.74;54.84
42603;BME280;28233;55.748;48.752;2022-07-29T07:08:34;99285.69;;;24.79;53.85
42603;BME280;28233;55.748;48.752;2022-07-29T07:10:37;99283.59;;;24.83;53.79
42603;BME280;28233;55.748;48.752;2022-07-29T07:12:40;99278.84;;;24.80;52.92
42603;BME280;28233;55.748;48.752;2022-07-29T07:14:42;99276.03;;;24.80;52.44
42603;BME280;28233;55.748;48.752;2022-07-29T07:16:45;99275.13;;;24.86;53.26
42603;BME280;28233;55.748;48.752;2022-07-29T07:18:49;99287.41;;;24.96;54.44
42603;BME280;28233;55.748;48.752;2022-07-29T07:20:51;99276.84;;;25.04;54.86
42603;BME280;28233;55.748;48.752;2022-07-29T07:22:54;99277.97;;;25.10;54.66
42603;BME280;28233;55.748;48.752;2022-07-29T07:24:57;99291.16;;;25.13;52.77
42603;BME280;28233;55.748;48.752;2022-07-29T07:26:59;99287.88;;;25.18;54.44
42603;BME280;28233;55.748;48.752;2022-07-29T07:29:02;99284.66;;;25.20;52.00
42603;BME280;28233;55.748;48.752;2022-07-29T07:31:05;99293.75;;;25.27;52.97
42603;BME280;28233;55.748;48.752;2022-07-29T07:33:07;99285.31;;;25.27;52.15
42603;BME280;28233;55.748;48.752;2022-07-29T07:35:10;99284.66;;;25.20;50.46
42603;BME280;28233;55.748;48.752;2022-07-29T07:37:13;99283.78;;;25.23;51.75
42603;BME280;28233;55.748;48.752;2022-07-29T07:39:16;99287.34;;;25.27;49.83
42603;BME280;28233;55.748;48.752;2022-07-29T07:41:19;99277.38;;;25.22;50.88
42603;BME280;28233;55.748;48.752;2022-07-29T07:43:22;99279.28;;;25.29;51.39
42603;BME280;28233;55.748;48.752;2022-07-29T07:45:26;99272.75;;;25.36;51.58
42603;BME280;28233;55.748;48.752;2022-07-29T07:47:29;99272.53;;;25.46;51.84
42603;BME280;28233;55.748;48.752;2022-07-29T07:49:35;99274.84;;;25.51;50.99
42603;BME280;28233;55.748;48.752;2022-07-29T07:51:37;99279.19;;;25.56;47.75
42603;BME280;28233;55.748;48.752;2022-07-29T07:53:40;99273.94;;;25.58;47.25
42603;BME280;28233;55.748;48.752;2022-07-29T07:55:43;99264.72;;;25.58;47.01
42603;BME280;28233;55.748;48.752;2022-07-29T07:58:06;99267.16;;;25.56;48.91
42603;BME280;28233;55.748;48.752;2022-07-29T08:00:09;99265.06;;;25.60;47.63
42603;BME280;28233;55.748;48.752;2022-07-29T08:02:11;99267.38;;;25.65;48.63
42603;BME280;28233;55.748;48.752;2022-07-29T08:04:14;99271.81;;;25.66;50.44
42603;BME280;28233;55.748;48.752;2022-07-29T08:06:17;99276.47;;;25.72;50.51
42603;BME280;28233;55.748;48.752;2022-07-29T08:08:20;99265.19;;;25.76;50.47
42603;BME280;28233;55.748;48.752;2022-07-29T08:10:23;99279.06;;;25.87;48.46
42603;BME280;28233;55.748;48.752;2022-07-29T08:12:45;99273.78;;;25.89;47.33
42603;BME280;28233;55.748;48.752;2022-07-29T08:14:47;99267.16;;;25.99;48.15
42603;BME280;28233;55.748;48.752;2022-07-29T08:16:50;99272.81;;;25.99;48.15
42603;BME280;28233;55.748;48.752;2022-07-29T08:18:53;99265.50;;;26.02;47.30
42603;BME280;28233;55.748;48.752;2022-07-29T08:20:59;99263.69;;;26.11;48.99
42603;BME280;28233;55.748;48.752;2022-07-29T08:23:02;99272.25;;;26.24;47.32
42603;BME280;28233;55.748;48.752;2022-07-29T08:25:06;99266.47;;;26.31;47.90
42603;BME280;28233;55.748;48.752;2022-07-29T08:27:10;99271.09;;;26.42;48.22
42603;BME280;28233;55.748;48.752;2022-07-29T08:29:33;99270.38;;;26.38;45.93
42603;BME280;28233;55.748;48.752;2022-07-29T08:31:40;99269.75;;;26.30;46.92
42603;BME280;28233;55.748;48.752;2022-07-29T08:33:43;99266.06;;;26.33;46.78
42603;BME280;28233;55.748;48.752;2022-07-29T08:35:46;99272.78;;;26.39;47.67
42603;BME280;28233;55.748;48.752;2022-07-29T08:37:48;99266.25;;;26.42;45.08
42603;BME280;28233;55.748;48.752;2022-07-29T08:39:51;99281.06;;;26.46;44.82
42603;BME280;28233;55.748;48.752;2022-07-29T08:41:54;99279.41;;;26.49;43.51
42603;BME280;28233;55.748;48.752;2022-07-29T08:44:03;99277.66;;;26.55;46.33
42603;BME280;28233;55.748;48.752;2022-07-29T08:46:06;99280.31;;;26.62;46.52
42603;BME280;28233;55.748;48.752;2022-07-29T08:48:09;99273.38;;;26.67;45.87
42603;BME280;28233;55.748;48.752;2022-07-29T08:50:11;99269.53;;;26.77;45.99
42603;BME280;28233;55.748;48.752;2022-07-29T08:52:15;99254.28;;;26.74;47.08
42603;BME280;28233;55.748;48.752;2022-07-29T08:54:18;99268.59;;;26.84;46.39
42603;BME280;28233;55.748;48.752;2022-07-29T08:56:22;99265.47;;;26.78;44.32
42603;BME280;28233;55.748;48.752;2022-07-29T08:58:26;99272.19;;;26.84;46.83
42603;BME280;28233;55.748;48.752;2022-07-29T09:00:30;99259.00;;;26.97;45.75
42603;BME280;28233;55.748;48.752;2022-07-29T09:02:38;99269.25;;;26.88;42.83
42603;BME280;28233;55.748;48.752;2022-07-29T09:04:41;99266.38;;;26.91;43.43
42603;BME280;28233;55.748;48.752;2022-07-29T09:06:47;99267.69;;;27.03;43.93
42603;BME280;28233;55.748;48.752;2022-07-29T09:08:50;99267.59;;;27.07;44.94
42603;BME280;28233;55.748;48.752;2022-07-29T09:10:54;99262.13;;;27.16;44.05
42603;BME280;28233;55.748;48.752;2022-07-29T09:12:57;99259.63;;;27.22;44.27
42603;BME280;28233;55.748;48.752;2022-07-29T09:15:00;99262.44;;;27.22;43.53
42603;BME280;28233;55.748;48.752;2022-07-29T09:17:05;99261.13;;;27.26;43.32
42603;BME280;28233;55.748;48.752;2022-07-29T09:19:27;99259.16;;;27.23;43.80
42603;BME280;28233;55.748;48.752;2022-07-29T09:21:40;99252.47;;;27.17;42.42
42603;BME280;28233;55.748;48.752;2022-07-29T09:24:10;99252.81;;;27.19;43.73
42603;BME280;28233;55.748;48.752;2022-07-29T09:26:13;99249.13;;;27.22;43.59
42603;BME280;28233;55.748;48.752;2022-07-29T09:28:16;99248.16;;;27.29;45.34
42603;BME280;28233;55.748;48.752;2022-07-29T09:30:19;99245.22;;;27.32;43.39
42603;BME280;28233;55.748;48.752;2022-07-29T09:32:33;99248.31;;;27.38;42.96
42603;BME280;28233;55.748;48.752;2022-07-29T09:35:15;99246.09;;;27.46;45.38
42603;BME280;28233;55.748;48.752;2022-07-29T09:37:28;99250.34;;;27.37;42.04
42603;BME280;28233;55.748;48.752;2022-07-29T09:39:33;99249.47;;;27.40;44.26
42603;BME280;28233;55.748;48.752;2022-07-29T09:41:51;99236.94;;;27.41;43.30
42603;BME280;28233;55.748;48.752;2022-07-29T09:43:57;99254.56;;;27.46;42.86
42603;BME280;28233;55.748;48.752;2022-07-29T09:46:13;99252.38;;;27.37;42.60
42603;BME280;28233;55.748;48.752;2022-07-29T09:48:21;99249.03;;;27.26;42.12
42603;BME280;28233;55.748;48.752;2022-07-29T09:50:41;99261.13;;;27.26;41.44
42603;BME280;28233;55.748;48.752;2022-07-29T09:52:48;99250.44;;;27.34;42.60
42603;BME280;28233;55.748;48.752;2022-07-29T09:54:51;99259.44;;;27.29;42.33
42603;BME280;28233;55.748;48.752;2022-07-29T09:56:56;99241.72;;;27.12;42.39
42603;BME280;28233;55.748;48.752;2022-07-29T09:59:05;99249.47;;;26.91;43.01
42603;BME280;28233;55.748;48.752;2022-07-29T10:01:09;99250.06;;;26.99;43.50
42603;BME280;28233;55.748;48.752;2022-07-29T10:03:13;99252.09;;;27.15;44.87
42603;BME280;28233;55.748;48.752;2022-07-29T10:05:26;99249.91;;;27.23;44.04
42603;BME280;28233;55.748;48.752;2022-07-29T10:09:56;99236.66;;;27.52;43.80
42603;BME280;28233;55.748;48.752;2022-07-29T10:12:12;99247.13;;;27.68;43.91
42603;BME280;28233;55.748;48.752;2022-07-29T10:14:18;99244.63;;;27.70;43.05
42603;BME280;28233;55.748;48.752;2022-07-29T10:16:21;99253.25;;;27.79;44.26
42603;BME280;28233;55.748;48.752;2022-07-29T10:18:24;99255.19;;;27.82;43.17
42603;BME280;28233;55.748;48.752;2022-07-29T10:20:27;99250.03;;;27.94;43.39
42603;BME280;28233;55.748;48.752;2022-07-29T10:22:30;99255.41;;;28.04;41.73
42603;BME280;28233;55.748;48.752;2022-07-29T10:24:53;99265.56;;;28.15;40.97
42603;BME280;28233;55.748;48.752;2022-07-29T10:26:59;99264.56;;;28.21;43.23
42603;BME280;28233;55.748;48.752;2022-07-29T10:29:02;99259.41;;;28.33;42.03
42603;BME280;28233;55.748;48.752;2022-07-29T10:31:06;99264.97;;;28.36;43.18
42603;BME280;28233;55.748;48.752;2022-07-29T10:33:51;99261.88;;;28.31;42.00
42603;BME280;28233;55.748;48.752;2022-07-29T10:40:43;99267.16;;;28.58;40.25
42603;BME280;28233;55.748;48.752;2022-07-29T10:43:21;99262.41;;;28.67;40.24
42603;BME280;28233;55.748;48.752;2022-07-29T10:45:26;99261.72;;;28.63;40.95
42603;BME280;28233;55.748;48.752;2022-07-29T10:47:29;99252.09;;;28.74;39.42
42603;BME280;28233;55.748;48.752;2022-07-29T10:49:32;99259.47;;;28.84;38.70
42603;BME280;28233;55.748;48.752;2022-07-29T10:53:52;99250.19;;;28.96;37.44
42603;BME280;28233;55.748;48.752;2022-07-29T10:55:56;99247.34;;;28.96;38.09
42603;BME280;28233;55.748;48.752;2022-07-29T10:58:23;99253.00;;;28.96;37.76
42603;BME280;28233;55.748;48.752;2022-07-29T11:00:31;99251.22;;;29.02;39.34
42603;BME280;28233;55.748;48.752;2022-07-29T11:09:20;99243.06;;;29.52;37.43
42603;BME280;28233;55.748;48.752;2022-07-29T11:11:39;99245.50;;;29.63;39.14
42603;BME280;28233;55.748;48.752;2022-07-29T11:13:51;99252.78;;;29.64;36.86
42603;BME280;28233;55.748;48.752;2022-07-29T11:15:57;99246.53;;;29.69;38.39
42603;BME280;28233;55.748;48.752;2022-07-29T11:22:34;99242.19;;;30.21;38.29
42603;BME280;28233;55.748;48.752;2022-07-29T11:24:44;99236.28;;;30.28;36.94
42603;BME280;28233;55.748;48.752;2022-07-29T11:29:21;99241.63;;;30.26;36.52
42603;BME280;28233;55.748;48.752;2022-07-29T11:33:35;99247.25;;;30.48;36.76
42603;BME280;28233;55.748;48.752;2022-07-29T11:36:10;99243.47;;;30.51;33.16